Time;durP1;ratioP1;P1;durP2;ratioP2;P2;SDS_P1;SDS_P2;PMS_P1;PMS_P2;Temp;Humidity;BMP_temperature;BMP_pressure;BME280_temperature;BME280_humidity;BME280_pressure;Samples;Min_cycle;Max_cycle;Signal;HPM_P1;HPM_P2
2023/06/30 00:02:21;;;;;;;0.90;0.77;;;;;;;;;;5049350;28;20124;-85
2023/06/30 00:04:48;;;;;;;0.52;0.50;;;;;;;;;;5049386;28;20478;-85
2023/06/30 00:07:14;;;;;;;2.88;0.88;;;;;;;;;;5049125;28;20482;-85
2023/06/30 00:09:40;;;;;;;0.15;0.15;;;;;;;;;;5048723;28;20070;-85
2023/06/30 00:12:06;;;;;;;0.30;0.30;;;;;;;;;;5049072;28;20056;-86
2023/06/30 00:14:32;;;;;;;0.50;0.47;;;;;;;;;;5048932;28;20478;-85
2023/06/30 00:16:58;;;;;;;0.77;0.50;;;;;;;;;;5048855;28;20029;-85
2023/06/30 00:19:25;;;;;;;0.30;0.30;;;;;;;;;;5049061;28;20033;-85
2023/06/30 00:21:52;;;;;;;0.30;0.30;;;;;;;;;;5049020;28;20128;-85
2023/06/30 00:24:19;;;;;;;0.25;0.22;;;;;;;;;;5048535;28;20018;-85
2023/06/30 00:26:45;;;;;;;0.20;0.20;;;;;;;;;;5049141;28;20061;-85
2023/06/30 00:29:11;;;;;;;0.20;0.20;;;;;;;;;;5049751;28;20032;-85
2023/06/30 00:31:37;;;;;;;0.45;0.45;;;;;;;;;;5052726;27;20037;-85
2023/06/30 00:34:03;;;;;;;1.17;0.82;;;;;;;;;;5052537;28;20391;-85
2023/06/30 00:36:29;;;;;;;0.40;0.40;;;;;;;;;;5052498;28;20029;-85
2023/06/30 00:38:55;;;;;;;0.20;0.20;;;;;;;;;;5052476;28;20075;-85
2023/06/30 00:41:22;;;;;;;4.28;1.30;;;;;;;;;;5052220;28;20040;-85
2023/06/30 00:43:48;;;;;;;1.13;1.10;;;;;;;;;;5052147;28;20029;-85
2023/06/30 00:46:16;;;;;;;0.52;0.52;;;;;;;;;;5052166;27;20509;-85
2023/06/30 00:48:42;;;;;;;0.28;0.28;;;;;;;;;;5052532;28;20047;-85
2023/06/30 00:51:08;;;;;;;0.13;0.13;;;;;;;;;;5052057;28;20032;-85
2023/06/30 00:53:34;;;;;;;0.10;0.10;;;;;;;;;;5051775;28;20029;-85
2023/06/30 00:56:00;;;;;;;0.70;0.70;;;;;;;;;;5051988;28;20036;-85
2023/06/30 00:58:26;;;;;;;0.75;0.60;;;;;;;;;;5051935;28;20021;-85
2023/06/30 01:00:54;;;;;;;0.88;0.55;;;;;;;;;;5052305;28;20029;-85
2023/06/30 01:03:27;;;;;;;2.10;0.73;;;;;;;;;;5050791;28;20417;-85
2023/06/30 01:06:22;;;;;;;0.40;0.35;;;;;;;;;;5051371;28;20025;-84
2023/06/30 01:08:50;;;;;;;0.20;0.20;;;;;;;;;;5055974;28;20048;-85
2023/06/30 01:11:17;;;;;;;0.10;0.10;;;;;;;;;;5051667;28;20036;-85
2023/06/30 01:13:43;;;;;;;0.32;0.32;;;;;;;;;;5051623;28;20505;-85
2023/06/30 01:16:09;;;;;;;0.22;0.22;;;;;;;;;;5051695;28;20021;-85
2023/06/30 01:18:36;;;;;;;0.30;0.30;;;;;;;;;;5051650;28;20021;-85
2023/06/30 01:21:05;;;;;;;0.30;0.30;;;;;;;;;;5051175;28;20029;-85
2023/06/30 01:23:52;;;;;;;0.10;0.10;;;;;;;;;;5051957;28;20043;-85
2023/06/30 01:26:19;;;;;;;0.13;0.13;;;;;;;;;;5051796;28;20025;-85
2023/06/30 01:28:46;;;;;;;1.02;0.52;;;;;;;;;;5051709;28;20030;-85
2023/06/30 01:31:12;;;;;;;1.75;0.70;;;;;;;;;;5051582;28;20478;-85
2023/06/30 01:33:39;;;;;;;0.55;0.30;;;;;;;;;;5051419;28;20397;-85
2023/06/30 01:36:05;;;;;;;0.00;0.00;;;;;;;;;;5051727;28;20049;-85
2023/06/30 01:38:31;;;;;;;1.05;0.30;;;;;;;;;;5051691;28;20041;-85
2023/06/30 01:40:57;;;;;;;0.57;0.57;;;;;;;;;;5050689;28;20454;-85
2023/06/30 01:43:23;;;;;;;0.68;0.38;;;;;;;;;;5051945;28;20033;-85
2023/06/30 01:45:50;;;;;;;0.55;0.50;;;;;;;;;;5051132;28;20029;-84
2023/06/30 01:48:16;;;;;;;0.10;0.10;;;;;;;;;;5051294;27;20494;-85
2023/06/30 01:50:43;;;;;;;0.10;0.10;;;;;;;;;;5050924;28;20028;-85
2023/06/30 01:53:09;;;;;;;0.10;0.10;;;;;;;;;;5051156;28;20025;-85
2023/06/30 01:55:36;;;;;;;0.65;0.65;;;;;;;;;;5050856;28;20029;-84
2023/06/30 01:58:03;;;;;;;1.35;1.05;;;;;;;;;;5051109;28;20051;-85
2023/06/30 02:00:29;;;;;;;0.75;0.25;;;;;;;;;;5051096;28;20026;-85
2023/06/30 02:02:55;;;;;;;0.17;0.17;;;;;;;;;;5051342;28;20037;-85
2023/06/30 02:05:21;;;;;;;0.60;0.40;;;;;;;;;;5050546;28;20497;-85
2023/06/30 02:07:47;;;;;;;0.55;0.43;;;;;;;;;;5051233;28;20029;-85
2023/06/30 02:10:13;;;;;;;0.35;0.35;;;;;;;;;;5050782;28;20036;-85
2023/06/30 02:12:39;;;;;;;0.55;0.52;;;;;;;;;;5050863;28;20021;-85
2023/06/30 02:15:05;;;;;;;0.40;0.40;;;;;;;;;;5051088;28;20031;-85
2023/06/30 02:17:32;;;;;;;0.40;0.40;;;;;;;;;;5050573;28;20444;-85
2023/06/30 02:20:03;;;;;;;0.10;0.10;;;;;;;;;;5050348;28;20082;-85
2023/06/30 02:22:29;;;;;;;0.52;0.47;;;;;;;;;;5050360;28;20069;-85
2023/06/30 02:24:56;;;;;;;0.73;0.73;;;;;;;;;;5050497;28;20021;-85
2023/06/30 02:27:22;;;;;;;0.30;0.30;;;;;;;;;;5050492;28;20474;-85
2023/06/30 02:29:48;;;;;;;1.23;0.70;;;;;;;;;;5050777;28;20089;-85
2023/06/30 02:32:14;;;;;;;0.38;0.38;;;;;;;;;;5050604;27;20486;-85
2023/06/30 02:34:40;;;;;;;3.63;1.40;;;;;;;;;;5050574;28;20037;-85
2023/06/30 02:37:06;;;;;;;0.60;0.47;;;;;;;;;;5050588;28;20078;-85
2023/06/30 02:39:32;;;;;;;0.10;0.10;;;;;;;;;;5050546;27;20044;-85
2023/06/30 02:41:58;;;;;;;2.47;0.77;;;;;;;;;;5050709;28;20068;-85
2023/06/30 02:44:24;;;;;;;2.97;1.98;;;;;;;;;;5050200;28;20032;-86
2023/06/30 02:46:50;;;;;;;1.38;1.08;;;;;;;;;;5050661;27;20035;-86
2023/06/30 02:49:16;;;;;;;0.88;0.88;;;;;;;;;;5050181;28;20036;-86
2023/06/30 02:51:42;;;;;;;0.65;0.65;;;;;;;;;;5049131;28;20029;-86
2023/06/30 02:54:08;;;;;;;0.40;0.40;;;;;;;;;;5050432;28;20028;-85
2023/06/30 02:56:34;;;;;;;1.00;0.68;;;;;;;;;;5050543;28;20395;-85
2023/06/30 02:59:00;;;;;;;1.45;0.65;;;;;;;;;;5050116;28;20120;-85
2023/06/30 03:01:26;;;;;;;1.05;0.52;;;;;;;;;;5050089;28;20025;-86
2023/06/30 03:03:52;;;;;;;0.10;0.10;;;;;;;;;;5049877;28;20478;-85
2023/06/30 03:06:21;;;;;;;0.28;0.28;;;;;;;;;;5050450;28;20036;-85
2023/06/30 03:08:47;;;;;;;0.77;0.68;;;;;;;;;;5050012;28;20024;-85
2023/06/30 03:11:14;;;;;;;0.40;0.40;;;;;;;;;;5049936;28;20036;-86
2023/06/30 03:13:40;;;;;;;1.45;0.85;;;;;;;;;;5049850;28;20048;-85
2023/06/30 03:16:06;;;;;;;1.23;0.77;;;;;;;;;;5050262;28;20036;-86
2023/06/30 03:18:32;;;;;;;0.57;0.57;;;;;;;;;;5049445;28;20028;-85
2023/06/30 03:20:58;;;;;;;1.27;0.70;;;;;;;;;;5049779;28;20034;-86
2023/06/30 03:23:24;;;;;;;0.70;0.43;;;;;;;;;;5049683;28;20025;-86
2023/06/30 03:25:50;;;;;;;0.40;0.40;;;;;;;;;;5049836;28;20079;-86
2023/06/30 03:28:16;;;;;;;1.38;0.77;;;;;;;;;;5049590;28;20045;-86
2023/06/30 03:30:42;;;;;;;0.65;0.65;;;;;;;;;;5049747;28;20025;-86
2023/06/30 03:33:08;;;;;;;6.97;1.90;;;;;;;;;;5049714;28;20104;-86
2023/06/30 03:35:34;;;;;;;0.70;0.70;;;;;;;;;;5049618;28;20025;-86
2023/06/30 03:38:00;;;;;;;1.88;0.77;;;;;;;;;;5049480;28;20061;-85
2023/06/30 03:40:26;;;;;;;0.82;0.82;;;;;;;;;;5049705;28;20146;-85
2023/06/30 03:42:52;;;;;;;0.73;0.57;;;;;;;;;;5049987;28;20112;-86
2023/06/30 03:45:18;;;;;;;1.65;0.68;;;;;;;;;;5049407;28;20029;-86
2023/06/30 03:47:44;;;;;;;0.70;0.70;;;;;;;;;;5048749;27;20021;-86
2023/06/30 03:50:10;;;;;;;1.67;1.13;;;;;;;;;;5049411;28;20025;-85
2023/06/30 03:52:36;;;;;;;0.40;0.40;;;;;;;;;;5049228;28;20028;-86
2023/06/30 03:55:02;;;;;;;0.40;0.40;;;;;;;;;;5049272;28;20032;-86
2023/06/30 03:57:28;;;;;;;0.43;0.43;;;;;;;;;;5049295;28;20107;-85
2023/06/30 03:59:54;;;;;;;0.20;0.20;;;;;;;;;;5049006;28;20116;-89
2023/06/30 04:02:20;;;;;;;0.82;0.82;;;;;;;;;;5049083;28;20029;-88
2023/06/30 04:04:46;;;;;;;0.20;0.20;;;;;;;;;;5049624;28;20036;-90
2023/06/30 04:07:12;;;;;;;0.75;0.75;;;;;;;;;;5049451;28;20025;-90
2023/06/30 04:09:38;;;;;;;0.50;0.40;;;;;;;;;;5048458;28;20060;-90
2023/06/30 04:12:04;;;;;;;0.65;0.65;;;;;;;;;;5048536;28;20021;-90
2023/06/30 04:14:30;;;;;;;0.32;0.32;;;;;;;;;;5049196;28;20026;-89
2023/06/30 04:16:56;;;;;;;0.50;0.47;;;;;;;;;;5049456;28;20049;-91
2023/06/30 04:19:22;;;;;;;1.55;0.47;;;;;;;;;;5049214;28;20413;-90
2023/06/30 04:21:49;;;;;;;1.58;0.73;;;;;;;;;;5049332;28;20082;-90
2023/06/30 04:24:15;;;;;;;0.40;0.40;;;;;;;;;;5049185;28;20029;-90
2023/06/30 04:26:41;;;;;;;0.28;0.28;;;;;;;;;;5048785;28;20044;-88
2023/06/30 04:29:07;;;;;;;0.20;0.20;;;;;;;;;;5049308;28;20039;-91
2023/06/30 04:31:33;;;;;;;0.20;0.20;;;;;;;;;;5049468;28;20433;-87
2023/06/30 04:33:59;;;;;;;0.40;0.40;;;;;;;;;;5048964;28;20036;-87
2023/06/30 04:36:28;;;;;;;1.08;0.88;;;;;;;;;;5048920;28;20026;-87
2023/06/30 04:38:55;;;;;;;2.13;0.63;;;;;;;;;;5049147;28;20073;-88
2023/06/30 04:41:21;;;;;;;0.10;0.10;;;;;;;;;;5048966;28;20059;-89
2023/06/30 04:43:47;;;;;;;1.55;0.85;;;;;;;;;;5047323;28;20033;-85
2023/06/30 04:46:13;;;;;;;0.20;0.20;;;;;;;;;;5048549;27;20029;-87
2023/06/30 04:48:39;;;;;;;0.35;0.35;;;;;;;;;;5048768;28;20039;-86
2023/06/30 04:51:05;;;;;;;0.68;0.57;;;;;;;;;;5048786;28;20028;-86
2023/06/30 04:53:31;;;;;;;0.65;0.43;;;;;;;;;;5047274;28;20029;-86
2023/06/30 04:55:57;;;;;;;0.65;0.52;;;;;;;;;;5048771;28;20100;-87
2023/06/30 04:58:23;;;;;;;0.65;0.65;;;;;;;;;;5047901;28;20130;-86
2023/06/30 05:00:49;;;;;;;0.10;0.10;;;;;;;;;;5048539;28;20108;-86
2023/06/30 05:03:15;;;;;;;0.50;0.50;;;;;;;;;;5048714;28;20120;-86
2023/06/30 05:05:41;;;;;;;0.65;0.60;;;;;;;;;;5048206;28;20097;-86
2023/06/30 05:08:07;;;;;;;0.50;0.50;;;;;;;;;;5049256;28;20051;-86
2023/06/30 05:10:33;;;;;;;0.43;0.35;;;;;;;;;;5048743;28;20522;-86
2023/06/30 05:12:59;;;;;;;0.45;0.32;;;;;;;;;;5048810;28;20048;-86
2023/06/30 05:15:25;;;;;;;0.45;0.40;;;;;;;;;;5049782;28;20021;-86
2023/06/30 05:17:51;;;;;;;0.35;0.35;;;;;;;;;;5051619;28;20028;-86
2023/06/30 05:20:17;;;;;;;0.13;0.13;;;;;;;;;;5051652;28;20386;-86
2023/06/30 05:22:43;;;;;;;0.52;0.47;;;;;;;;;;5045052;28;20052;-86
2023/06/30 05:25:09;;;;;;;0.32;0.32;;;;;;;;;;5051685;28;20029;-86
2023/06/30 05:27:35;;;;;;;0.47;0.47;;;;;;;;;;5051174;28;20052;-86
2023/06/30 05:30:01;;;;;;;1.27;0.73;;;;;;;;;;5051640;28;20402;-86
2023/06/30 05:32:27;;;;;;;0.35;0.35;;;;;;;;;;5051487;27;20025;-86
2023/06/30 05:34:53;;;;;;;0.32;0.30;;;;;;;;;;5050197;28;20554;-86
2023/06/30 05:37:19;;;;;;;0.52;0.52;;;;;;;;;;5051545;27;20025;-86
2023/06/30 05:39:45;;;;;;;1.02;0.55;;;;;;;;;;5050553;28;20036;-86
2023/06/30 05:42:11;;;;;;;0.45;0.45;;;;;;;;;;5051415;28;20502;-86
2023/06/30 05:44:37;;;;;;;0.43;0.43;;;;;;;;;;5051341;28;20111;-86
2023/06/30 05:47:03;;;;;;;0.85;0.85;;;;;;;;;;5051346;27;20050;-85
2023/06/30 05:49:29;;;;;;;0.22;0.22;;;;;;;;;;5049969;28;20082;-86
2023/06/30 05:51:55;;;;;;;0.10;0.10;;;;;;;;;;5051078;28;20395;-86
2023/06/30 05:54:21;;;;;;;0.28;0.28;;;;;;;;;;5051448;28;20065;-87
2023/06/30 05:56:47;;;;;;;0.20;0.20;;;;;;;;;;5051562;28;20025;-86
2023/06/30 05:59:13;;;;;;;0.28;0.28;;;;;;;;;;5051120;28;20062;-86
2023/06/30 06:01:40;;;;;;;0.20;0.20;;;;;;;;;;5050853;28;20021;-86
2023/06/30 06:04:10;;;;;;;0.40;0.30;;;;;;;;;;5051184;28;20055;-86
2023/06/30 06:06:36;;;;;;;0.32;0.32;;;;;;;;;;5050550;28;20406;-86
2023/06/30 06:09:01;;;;;;;3.00;1.58;;;;;;;;;;5050572;28;20095;-86
2023/06/30 06:11:27;;;;;;;2.20;0.32;;;;;;;;;;5050356;28;20021;-86
2023/06/30 06:13:53;;;;;;;0.57;0.57;;;;;;;;;;5050876;28;20604;-86
2023/06/30 06:16:21;;;;;;;0.47;0.47;;;;;;;;;;5050692;27;20032;-86
2023/06/30 06:18:48;;;;;;;1.15;0.65;;;;;;;;;;5050890;28;20036;-86
2023/06/30 06:21:14;;;;;;;0.00;0.00;;;;;;;;;;5051063;28;20426;-86
2023/06/30 06:23:40;;;;;;;1.25;0.40;;;;;;;;;;5050569;28;20033;-86
2023/06/30 06:26:06;;;;;;;1.38;1.27;;;;;;;;;;5050136;27;20104;-86
2023/06/30 06:28:32;;;;;;;0.82;0.82;;;;;;;;;;5051293;28;20037;-92
2023/06/30 06:30:58;;;;;;;0.20;0.20;;;;;;;;;;5050106;28;20021;-91
2023/06/30 06:33:24;;;;;;;0.05;0.05;;;;;;;;;;5051248;28;20063;-93
2023/06/30 06:35:53;;;;;;;0.40;0.40;;;;;;;;;;5050374;28;20056;-93
2023/06/30 06:38:19;;;;;;;0.20;0.20;;;;;;;;;;5052195;28;20027;-89
2023/06/30 06:40:48;;;;;;;0.10;0.10;;;;;;;;;;5051892;28;20037;-93
2023/06/30 06:43:14;;;;;;;0.68;0.68;;;;;;;;;;5051824;28;20062;-89
2023/06/30 06:45:44;;;;;;;0.68;0.43;;;;;;;;;;5050958;28;20060;-90
2023/06/30 06:48:23;;;;;;;1.73;0.68;;;;;;;;;;5050166;27;20053;-89
2023/06/30 06:50:50;;;;;;;0.40;0.40;;;;;;;;;;5033880;28;20096;-90
2023/06/30 06:53:19;;;;;;;0.38;0.38;;;;;;;;;;5051816;28;20025;-91
2023/06/30 06:55:45;;;;;;;0.55;0.35;;;;;;;;;;5050733;28;20021;-93
2023/06/30 06:58:11;;;;;;;3.97;0.75;;;;;;;;;;5049253;28;20041;-90
2023/06/30 07:00:36;;;;;;;0.40;0.40;;;;;;;;;;5049293;28;20108;-90
2023/06/30 07:03:03;;;;;;;0.38;0.38;;;;;;;;;;5049317;28;20036;-91
2023/06/30 07:05:31;;;;;;;1.17;0.55;;;;;;;;;;5051051;28;20013;-91
2023/06/30 07:07:57;;;;;;;0.22;0.20;;;;;;;;;;5050064;28;20029;-93
2023/06/30 07:10:23;;;;;;;0.52;0.45;;;;;;;;;;5050109;28;20108;-90
2023/06/30 07:12:49;;;;;;;0.43;0.43;;;;;;;;;;5050828;28;20479;-91
2023/06/30 07:15:15;;;;;;;0.30;0.30;;;;;;;;;;5050092;28;20035;-93
2023/06/30 07:17:41;;;;;;;0.30;0.30;;;;;;;;;;5049842;28;20021;-92
2023/06/30 07:20:07;;;;;;;2.03;1.27;;;;;;;;;;5050549;28;20044;-90
2023/06/30 07:22:33;;;;;;;0.30;0.30;;;;;;;;;;5050602;28;20036;-91
2023/06/30 07:25:00;;;;;;;0.30;0.25;;;;;;;;;;5049842;28;20817;-91
2023/06/30 07:27:26;;;;;;;0.30;0.30;;;;;;;;;;5049225;28;20052;-91
2023/06/30 07:29:52;;;;;;;0.30;0.30;;;;;;;;;;5050725;28;20029;-90
2023/06/30 07:32:18;;;;;;;0.43;0.43;;;;;;;;;;5049432;28;20586;-91
2023/06/30 07:34:44;;;;;;;8.60;1.20;;;;;;;;;;5048269;28;20061;-90
2023/06/30 07:37:11;;;;;;;0.20;0.20;;;;;;;;;;5044420;28;20045;-91
2023/06/30 07:39:37;;;;;;;0.65;0.40;;;;;;;;;;5029152;28;20386;-90
2023/06/30 07:42:04;;;;;;;0.38;0.38;;;;;;;;;;5030187;28;20075;-89
2023/06/30 07:44:30;;;;;;;0.88;0.65;;;;;;;;;;5029172;28;20122;-91
2023/06/30 07:46:56;;;;;;;0.17;0.17;;;;;;;;;;5030280;27;20029;-91
2023/06/30 07:49:21;;;;;;;0.40;0.32;;;;;;;;;;5035217;28;20117;-91
2023/06/30 07:51:48;;;;;;;3.10;0.43;;;;;;;;;;5049133;28;20025;-91
2023/06/30 07:54:15;;;;;;;0.30;0.30;;;;;;;;;;5049724;28;20053;-91
2023/06/30 07:56:41;;;;;;;0.65;0.40;;;;;;;;;;5050080;28;20024;-91
2023/06/30 07:59:08;;;;;;;0.10;0.10;;;;;;;;;;5049784;28;20039;-89
2023/06/30 08:01:33;;;;;;;0.20;0.20;;;;;;;;;;5049551;28;20101;-91
2023/06/30 08:03:59;;;;;;;0.20;0.20;;;;;;;;;;5048917;28;20028;-90
2023/06/30 08:06:25;;;;;;;0.63;0.47;;;;;;;;;;5049769;28;20017;-91
2023/06/30 08:08:51;;;;;;;0.30;0.30;;;;;;;;;;5049993;28;20029;-91
2023/06/30 08:11:17;;;;;;;0.82;0.82;;;;;;;;;;5050570;28;20029;-92
2023/06/30 08:13:43;;;;;;;1.88;0.40;;;;;;;;;;5049900;28;20033;-93
2023/06/30 08:16:09;;;;;;;0.03;0.03;;;;;;;;;;5049770;28;20021;-92
2023/06/30 08:18:35;;;;;;;0.82;0.55;;;;;;;;;;5101130;27;20032;-90
2023/06/30 08:21:02;;;;;;;0.20;0.20;;;;;;;;;;5037136;28;20025;-86
2023/06/30 08:23:28;;;;;;;0.80;0.40;;;;;;;;;;5048930;28;20034;-86
2023/06/30 08:25:55;;;;;;;1.95;0.50;;;;;;;;;;5048565;28;20029;-86
2023/06/30 08:28:21;;;;;;;0.00;0.00;;;;;;;;;;5048642;28;20041;-86
2023/06/30 08:30:47;;;;;;;0.10;0.10;;;;;;;;;;5049092;28;20050;-87
2023/06/30 08:33:13;;;;;;;0.63;0.55;;;;;;;;;;5049314;28;20509;-87
2023/06/30 08:35:40;;;;;;;0.38;0.38;;;;;;;;;;5049919;28;20021;-87
2023/06/30 08:38:06;;;;;;;0.10;0.10;;;;;;;;;;5048832;28;20478;-86
2023/06/30 08:40:32;;;;;;;0.20;0.20;;;;;;;;;;5049174;28;20048;-86
2023/06/30 08:43:05;;;;;;;0.40;0.40;;;;;;;;;;5048619;28;20068;-86
2023/06/30 08:45:31;;;;;;;0.85;0.40;;;;;;;;;;5047340;28;20493;-86
2023/06/30 08:47:59;;;;;;;0.70;0.68;;;;;;;;;;5048599;27;20037;-87
2023/06/30 08:50:26;;;;;;;0.63;0.40;;;;;;;;;;5049762;28;20029;-86
2023/06/30 08:52:52;;;;;;;0.20;0.20;;;;;;;;;;5052401;28;20025;-86
2023/06/30 08:55:18;;;;;;;0.38;0.38;;;;;;;;;;5052026;28;20048;-87
2023/06/30 08:57:45;;;;;;;0.20;0.20;;;;;;;;;;5051874;28;20021;-86
2023/06/30 09:00:11;;;;;;;0.35;0.20;;;;;;;;;;5052345;28;20051;-86
2023/06/30 09:02:38;;;;;;;0.30;0.30;;;;;;;;;;5051955;28;20526;-86
2023/06/30 09:05:04;;;;;;;0.70;0.70;;;;;;;;;;5051444;28;20032;-87
2023/06/30 09:07:33;;;;;;;1.17;0.98;;;;;;;;;;5052290;28;20490;-86
2023/06/30 09:10:00;;;;;;;5.50;1.92;;;;;;;;;;5051717;28;20021;-86
2023/06/30 09:12:27;;;;;;;0.40;0.40;;;;;;;;;;5051800;28;20033;-86
2023/06/30 09:14:54;;;;;;;0.40;0.40;;;;;;;;;;5051771;28;20103;-87
2023/06/30 09:17:20;;;;;;;0.40;0.40;;;;;;;;;;5050437;28;20028;-86
2023/06/30 09:19:46;;;;;;;0.45;0.45;;;;;;;;;;5051324;28;20031;-86
2023/06/30 09:22:12;;;;;;;0.63;0.63;;;;;;;;;;5051498;28;20032;-87
2023/06/30 09:24:38;;;;;;;0.50;0.50;;;;;;;;;;5051944;28;20021;-87
2023/06/30 09:27:04;;;;;;;0.60;0.60;;;;;;;;;;5051947;28;20041;-86
2023/06/30 09:29:34;;;;;;;0.43;0.43;;;;;;;;;;5051736;27;20025;-86
2023/06/30 09:32:03;;;;;;;2.80;1.20;;;;;;;;;;5052184;28;20116;-86
2023/06/30 09:34:30;;;;;;;0.93;0.63;;;;;;;;;;5050971;28;20062;-87
2023/06/30 09:36:56;;;;;;;1.77;1.42;;;;;;;;;;5051070;28;20076;-88
2023/06/30 09:39:22;;;;;;;1.20;0.90;;;;;;;;;;5051016;28;20033;-88
2023/06/30 09:41:49;;;;;;;2.60;0.60;;;;;;;;;;5051782;28;20081;-89
2023/06/30 09:44:20;;;;;;;0.30;0.30;;;;;;;;;;5051266;28;20021;-88
2023/06/30 09:46:46;;;;;;;1.38;0.98;;;;;;;;;;5050943;27;20040;-90
2023/06/30 09:49:32;;;;;;;4.90;1.58;;;;;;;;;;5050837;28;20078;-89
2023/06/30 09:51:59;;;;;;;0.50;0.50;;;;;;;;;;5051390;28;20052;-88
2023/06/30 09:54:26;;;;;;;1.20;0.63;;;;;;;;;;5049223;28;20025;-89
2023/06/30 09:56:58;;;;;;;2.17;1.15;;;;;;;;;;5051292;28;20104;-88
2023/06/30 09:59:25;;;;;;;0.52;0.52;;;;;;;;;;5051141;28;20036;-88
2023/06/30 10:01:55;;;;;;;0.20;0.20;;;;;;;;;;5050189;28;20037;-88
2023/06/30 10:04:21;;;;;;;0.80;0.75;;;;;;;;;;5050410;28;20043;-89
2023/06/30 10:06:47;;;;;;;0.70;0.32;;;;;;;;;;5031428;28;20030;-89
2023/06/30 10:09:15;;;;;;;0.43;0.43;;;;;;;;;;5041539;28;20033;-88
2023/06/30 10:11:43;;;;;;;0.98;0.93;;;;;;;;;;5050799;27;20036;-88
2023/06/30 10:14:10;;;;;;;1.55;1.27;;;;;;;;;;5050793;28;20073;-89
2023/06/30 10:16:36;;;;;;;0.20;0.20;;;;;;;;;;5051084;28;20025;-89
2023/06/30 10:19:03;;;;;;;2.40;1.40;;;;;;;;;;5048821;28;20420;-89
2023/06/30 10:21:29;;;;;;;1.10;1.00;;;;;;;;;;5050691;28;20032;-87
2023/06/30 10:23:55;;;;;;;0.47;0.47;;;;;;;;;;5050518;28;20035;-93
2023/06/30 10:26:22;;;;;;;0.40;0.40;;;;;;;;;;5051143;28;20578;-94
2023/06/30 10:28:48;;;;;;;1.13;0.70;;;;;;;;;;5032102;28;20029;-93
2023/06/30 10:31:14;;;;;;;3.25;0.70;;;;;;;;;;5046738;28;20037;-89
2023/06/30 10:33:40;;;;;;;3.10;0.55;;;;;;;;;;5049947;28;20025;-88
2023/06/30 10:36:06;;;;;;;0.98;0.40;;;;;;;;;;5050488;28;20029;-88
2023/06/30 10:38:33;;;;;;;0.63;0.63;;;;;;;;;;5050040;28;20032;-88
2023/06/30 10:41:19;;;;;;;0.30;0.30;;;;;;;;;;5050250;28;20043;-88
2023/06/30 10:44:00;;;;;;;0.25;0.25;;;;;;;;;;5050729;28;20387;-89
2023/06/30 10:46:46;;;;;;;0.57;0.25;;;;;;;;;;5050109;27;20017;-89
2023/06/30 10:49:18;;;;;;;1.85;1.02;;;;;;;;;;5050501;28;20037;-88
2023/06/30 10:51:51;;;;;;;1.05;0.85;;;;;;;;;;5049960;28;20078;-88
2023/06/30 10:54:40;;;;;;;0.50;0.50;;;;;;;;;;5046617;28;20029;-91
2023/06/30 10:57:09;;;;;;;0.20;0.20;;;;;;;;;;5034311;28;20498;-87
2023/06/30 10:59:39;;;;;;;0.10;0.10;;;;;;;;;;5050004;28;20036;-88
2023/06/30 11:02:17;;;;;;;0.30;0.30;;;;;;;;;;5049366;28;20474;-89
2023/06/30 11:04:44;;;;;;;0.52;0.52;;;;;;;;;;5050147;28;20037;-88
2023/06/30 11:07:11;;;;;;;0.20;0.20;;;;;;;;;;5049897;28;20025;-88
2023/06/30 11:09:49;;;;;;;0.20;0.20;;;;;;;;;;5048541;28;20073;-89
2023/06/30 11:12:15;;;;;;;0.40;0.40;;;;;;;;;;5049152;28;20028;-87
2023/06/30 11:15:14;;;;;;;0.15;0.15;;;;;;;;;;5049209;28;20029;-88
2023/06/30 11:17:52;;;;;;;1.38;0.65;;;;;;;;;;5007589;28;20061;-88
2023/06/30 11:20:18;;;;;;;0.30;0.30;;;;;;;;;;5007615;28;20046;-88
2023/06/30 11:23:01;;;;;;;2.08;0.68;;;;;;;;;;5008223;28;20033;-85
2023/06/30 11:25:27;;;;;;;1.00;1.00;;;;;;;;;;5007471;28;20083;-85
2023/06/30 11:27:53;;;;;;;1.55;0.47;;;;;;;;;;5007796;28;20064;-90
2023/06/30 11:30:26;;;;;;;0.95;0.60;;;;;;;;;;5009093;28;20070;-91
2023/06/30 11:32:59;;;;;;;0.52;0.40;;;;;;;;;;5009005;28;20561;-87
2023/06/30 11:35:29;;;;;;;0.88;0.32;;;;;;;;;;5007345;28;20087;-87
2023/06/30 11:37:55;;;;;;;0.50;0.40;;;;;;;;;;5007177;28;20034;-89
2023/06/30 11:40:22;;;;;;;1.15;0.38;;;;;;;;;;5007683;28;20056;-84
2023/06/30 11:42:48;;;;;;;1.08;0.85;;;;;;;;;;5008008;28;20079;-84
2023/06/30 11:45:20;;;;;;;10.85;1.55;;;;;;;;;;5007530;28;20121;-84
2023/06/30 11:47:48;;;;;;;0.40;0.40;;;;;;;;;;5008076;28;20033;-84
2023/06/30 11:50:15;;;;;;;0.43;0.43;;;;;;;;;;5007664;28;20054;-84
2023/06/30 11:52:41;;;;;;;0.40;0.40;;;;;;;;;;5019288;28;20087;-85
2023/06/30 11:55:07;;;;;;;0.28;0.28;;;;;;;;;;5047959;28;20439;-84
2023/06/30 11:57:34;;;;;;;0.55;0.55;;;;;;;;;;5048129;28;20554;-84
2023/06/30 12:00:06;;;;;;;0.82;0.80;;;;;;;;;;5049553;28;20029;-84
2023/06/30 12:02:32;;;;;;;0.57;0.57;;;;;;;;;;5049074;28;20506;-84
2023/06/30 12:04:58;;;;;;;0.10;0.10;;;;;;;;;;5049042;28;20037;-84
2023/06/30 12:07:24;;;;;;;0.68;0.68;;;;;;;;;;5050148;28;20024;-84
2023/06/30 12:10:00;;;;;;;0.75;0.60;;;;;;;;;;5049356;28;20103;-84
2023/06/30 12:12:27;;;;;;;0.20;0.20;;;;;;;;;;5049128;28;20093;-84
2023/06/30 12:14:53;;;;;;;0.38;0.30;;;;;;;;;;5048997;28;20021;-84
2023/06/30 12:17:19;;;;;;;0.30;0.15;;;;;;;;;;5049667;28;20427;-84
2023/06/30 12:19:45;;;;;;;1.75;0.52;;;;;;;;;;5048870;28;20064;-84
2023/06/30 12:22:14;;;;;;;1.90;0.40;;;;;;;;;;5049084;28;20129;-84
2023/06/30 12:24:42;;;;;;;0.08;0.08;;;;;;;;;;5053009;28;20382;-84
2023/06/30 12:27:08;;;;;;;0.03;0.03;;;;;;;;;;5055394;27;20061;-84
2023/06/30 12:29:35;;;;;;;2.40;0.70;;;;;;;;;;5055415;27;20014;-84
2023/06/30 12:32:11;;;;;;;0.10;0.10;;;;;;;;;;5056130;27;20470;-84
2023/06/30 12:34:37;;;;;;;2.47;0.70;;;;;;;;;;5055382;27;20021;-84
2023/06/30 12:37:03;;;;;;;0.20;0.20;;;;;;;;;;5055492;27;20029;-84
2023/06/30 12:39:29;;;;;;;1.50;0.55;;;;;;;;;;5055965;27;20129;-84
2023/06/30 12:41:55;;;;;;;0.35;0.35;;;;;;;;;;5055120;27;20033;-83
2023/06/30 12:44:22;;;;;;;0.52;0.38;;;;;;;;;;5055426;27;20028;-84
2023/06/30 12:47:08;;;;;;;0.13;0.13;;;;;;;;;;5055709;27;20037;-84
2023/06/30 12:49:36;;;;;;;0.30;0.20;;;;;;;;;;5055578;28;20029;-84
2023/06/30 12:52:03;;;;;;;0.30;0.30;;;;;;;;;;5055190;27;20029;-84
2023/06/30 12:54:29;;;;;;;0.30;0.30;;;;;;;;;;5055120;28;20021;-83
2023/06/30 12:56:55;;;;;;;0.80;0.80;;;;;;;;;;5054845;27;20021;-84
2023/06/30 12:59:21;;;;;;;0.38;0.30;;;;;;;;;;5055618;27;20021;-84
2023/06/30 13:01:47;;;;;;;0.63;0.63;;;;;;;;;;5054894;28;20029;-84
2023/06/30 13:04:14;;;;;;;0.50;0.50;;;;;;;;;;5054965;28;20032;-84
2023/06/30 13:06:41;;;;;;;0.38;0.38;;;;;;;;;;5055190;28;20033;-84
2023/06/30 13:09:07;;;;;;;1.35;0.63;;;;;;;;;;5055055;27;20029;-84
2023/06/30 13:11:33;;;;;;;0.40;0.40;;;;;;;;;;5054714;28;20025;-84
2023/06/30 13:13:59;;;;;;;0.88;0.63;;;;;;;;;;5055223;27;20021;-84
2023/06/30 13:16:25;;;;;;;0.10;0.10;;;;;;;;;;5055034;28;20029;-83
2023/06/30 13:18:52;;;;;;;0.00;0.00;;;;;;;;;;5055068;28;20049;-84
2023/06/30 13:21:18;;;;;;;0.10;0.10;;;;;;;;;;5056071;28;20028;-84
2023/06/30 13:23:44;;;;;;;0.20;0.20;;;;;;;;;;5054576;28;20455;-84
2023/06/30 13:26:10;;;;;;;0.20;0.20;;;;;;;;;;5054376;27;20440;-84
2023/06/30 13:28:36;;;;;;;0.45;0.45;;;;;;;;;;5055106;27;20040;-84
2023/06/30 13:31:02;;;;;;;0.10;0.10;;;;;;;;;;5054835;27;20029;-84
2023/06/30 13:33:28;;;;;;;0.65;0.25;;;;;;;;;;5054974;27;20053;-84
2023/06/30 13:35:54;;;;;;;0.80;0.57;;;;;;;;;;5052543;27;20067;-84
2023/06/30 13:38:20;;;;;;;0.32;0.32;;;;;;;;;;5051538;28;20021;-84
2023/06/30 13:40:46;;;;;;;0.47;0.47;;;;;;;;;;5051210;28;20048;-84
2023/06/30 13:43:12;;;;;;;0.08;0.08;;;;;;;;;;5051478;28;20098;-84
2023/06/30 13:45:38;;;;;;;0.20;0.20;;;;;;;;;;5048147;28;20029;-90
2023/06/30 13:48:06;;;;;;;0.22;0.22;;;;;;;;;;5030193;27;20422;-90
2023/06/30 13:50:32;;;;;;;0.20;0.20;;;;;;;;;;5034727;28;20021;-89
2023/06/30 13:52:58;;;;;;;0.45;0.45;;;;;;;;;;5045597;28;20391;-89
2023/06/30 13:55:24;;;;;;;0.55;0.50;;;;;;;;;;5079095;27;20156;-92
2023/06/30 13:57:51;;;;;;;0.10;0.10;;;;;;;;;;5157028;27;20405;-93
2023/06/30 14:00:17;;;;;;;0.30;0.30;;;;;;;;;;5155957;27;20347;-93
2023/06/30 14:02:43;;;;;;;0.10;0.10;;;;;;;;;;5138416;27;20148;-91
2023/06/30 14:05:09;;;;;;;0.65;0.40;;;;;;;;;;5050332;28;20379;-90
2023/06/30 14:07:35;;;;;;;0.03;0.03;;;;;;;;;;5051942;28;20486;-92
2023/06/30 14:10:03;;;;;;;0.65;0.55;;;;;;;;;;5045838;28;20021;-92
2023/06/30 14:12:29;;;;;;;0.10;0.10;;;;;;;;;;5030602;28;20029;-92
2023/06/30 14:14:55;;;;;;;0.52;0.45;;;;;;;;;;5031722;28;20017;-90
2023/06/30 14:17:21;;;;;;;0.63;0.63;;;;;;;;;;5029766;28;20551;-89
2023/06/30 14:19:47;;;;;;;0.38;0.20;;;;;;;;;;5043048;28;20025;-89
2023/06/30 14:22:13;;;;;;;0.95;0.95;;;;;;;;;;5050364;28;20059;-89
2023/06/30 14:24:39;;;;;;;0.30;0.30;;;;;;;;;;5050366;28;20029;-89
2023/06/30 14:27:05;;;;;;;0.88;0.65;;;;;;;;;;5050353;28;20052;-88
2023/06/30 14:29:31;;;;;;;0.32;0.32;;;;;;;;;;5049564;28;20486;-88
2023/06/30 14:31:58;;;;;;;0.85;0.35;;;;;;;;;;5050170;28;20029;-89
2023/06/30 14:34:24;;;;;;;0.10;0.10;;;;;;;;;;5050079;28;20029;-89
2023/06/30 14:36:50;;;;;;;2.72;0.90;;;;;;;;;;5048926;28;20032;-88
2023/06/30 14:39:16;;;;;;;1.08;0.20;;;;;;;;;;5047868;28;20040;-90
2023/06/30 14:41:44;;;;;;;0.20;0.20;;;;;;;;;;5049473;28;20515;-90
2023/06/30 14:44:10;;;;;;;0.70;0.20;;;;;;;;;;5049276;28;20033;-90